Time;durP1;ratioP1;P1;durP2;ratioP2;P2;SDS_P1;SDS_P2;PMS_P1;PMS_P2;Temp;Humidity;BMP_temperature;BMP_pressure;BME280_temperature;BME280_humidity;BME280_pressure;Samples;Min_cycle;Max_cycle;Signal;HPM_P1;HPM_P2
2021/05/18 00:02:42;;;;;;;13.23;7.70;;;;;;;12.88;67.24;100604.09;6090887;29;20236;-48
2021/05/18 00:06:05;;;;;;;7.17;6.37;;;;;;;12.91;66.50;100614.44;6089835;29;20316;-52
2021/05/18 00:13:05;;;;;;;10.53;7.83;;;;;;;12.76;66.88;100620.91;6079484;29;20618;-53
2021/05/18 00:16:25;;;;;;;11.37;8.80;;;;;;;12.91;65.78;100623.19;6091338;29;20228;-51
2021/05/18 00:19:46;;;;;;;13.30;11.20;;;;;;;12.64;66.79;100628.97;6089723;29;21934;-50
2021/05/18 00:23:08;;;;;;;14.53;11.37;;;;;;;12.68;66.29;100625.41;6085322;29;20318;-52
2021/05/18 00:26:28;;;;;;;13.13;9.57;;;;;;;12.60;66.31;100636.88;6091950;29;20257;-47
2021/05/18 00:29:50;;;;;;;15.50;11.40;;;;;;;12.52;66.80;100637.91;6097196;29;20514;-48
2021/05/18 00:33:13;;;;;;;12.47;10.83;;;;;;;12.59;66.12;100639.53;6097377;29;20244;-48
2021/05/18 00:36:33;;;;;;;13.33;10.37;;;;;;;12.74;65.87;100649.66;6093407;29;20221;-50
2021/05/18 00:39:54;;;;;;;12.83;11.53;;;;;;;12.59;66.60;100649.97;6089939;29;20236;-49
2021/05/18 00:43:15;;;;;;;11.73;9.27;;;;;;;12.89;65.58;100652.84;6090115;29;20232;-52
2021/05/18 00:46:38;;;;;;;16.93;10.13;;;;;;;12.85;65.81;100659.03;6090137;29;20233;-52
2021/05/18 00:49:59;;;;;;;13.00;8.20;;;;;;;12.41;66.32;100652.06;6094003;29;20244;-50
2021/05/18 00:53:22;;;;;;;8.90;6.53;;;;;;;12.49;65.92;100658.88;6094236;29;20233;-54
2021/05/18 01:00:27;;;;;;;11.00;6.93;;;;;;;12.53;65.94;100671.00;6091275;29;20837;-54
2021/05/18 01:03:50;;;;;;;7.90;7.10;;;;;;;12.39;66.27;100677.34;6094212;29;20229;-48
2021/05/18 01:07:11;;;;;;;10.30;7.10;;;;;;;12.05;66.70;100684.91;6092252;29;20248;-48
2021/05/18 01:10:31;;;;;;;11.43;6.83;;;;;;;12.08;66.62;100678.75;6087538;29;20335;-48
2021/05/18 01:13:56;;;;;;;9.47;7.07;;;;;;;11.98;66.90;100688.50;6093042;29;20228;-50
2021/05/18 01:17:17;;;;;;;15.83;7.90;;;;;;;12.38;65.72;100688.66;6082960;29;20240;-51
2021/05/18 01:20:38;;;;;;;10.20;6.20;;;;;;;12.48;66.21;100685.88;6089133;29;20311;-48
2021/05/18 01:24:00;;;;;;;11.63;6.57;;;;;;;12.30;65.68;100694.94;6091848;29;20766;-52
2021/05/18 01:27:20;;;;;;;9.87;5.57;;;;;;;12.43;65.25;100693.81;6088111;29;20233;-51
2021/05/18 01:30:41;;;;;;;9.90;6.07;;;;;;;12.62;65.06;100702.16;6098738;29;20233;-49
2021/05/18 01:34:04;;;;;;;12.57;6.73;;;;;;;12.38;65.81;100704.31;6090292;29;20311;-48
2021/05/18 01:37:30;;;;;;;10.73;7.37;;;;;;;12.38;65.87;100706.94;6089327;29;20323;-47
2021/05/18 01:44:30;;;;;;;7.53;5.97;;;;;;;12.50;65.39;100712.84;6101299;29;20236;-54
2021/05/18 01:47:56;;;;;;;8.57;6.10;;;;;;;12.39;65.56;100726.09;6090287;29;20256;-50
2021/05/18 01:51:29;;;;;;;11.23;7.13;;;;;;;12.30;65.00;100719.28;6087522;29;20911;-47
2021/05/18 01:54:52;;;;;;;9.50;6.30;;;;;;;12.40;64.46;100733.88;6088804;29;20623;-51
2021/05/18 01:58:12;;;;;;;11.10;6.43;;;;;;;12.14;65.35;100736.13;6092993;29;20618;-48
2021/05/18 02:01:46;;;;;;;11.50;6.37;;;;;;;12.00;65.74;100745.03;6086976;29;20240;-49
2021/05/18 02:05:10;;;;;;;10.13;6.10;;;;;;;11.83;65.41;100749.63;6091467;29;20236;-49
2021/05/18 02:08:58;;;;;;;6.00;5.37;;;;;;;11.83;65.51;100749.63;6090670;29;20237;-47
2021/05/18 02:12:27;;;;;;;12.27;6.77;;;;;;;11.99;64.94;100753.72;6090560;29;20220;-52
2021/05/18 02:15:54;;;;;;;8.37;7.10;;;;;;;12.00;64.92;100759.84;6090104;29;20229;-48
2021/05/18 02:19:27;;;;;;;12.00;6.77;;;;;;;12.15;64.02;100751.72;6090986;29;20232;-48
2021/05/18 02:26:35;;;;;;;9.17;6.93;;;;;;;12.11;64.34;100763.09;6086823;29;20650;-50
2021/05/18 02:29:58;;;;;;;14.83;7.17;;;;;;;12.17;64.17;100762.16;6084532;29;20626;-53
2021/05/18 02:33:20;;;;;;;8.43;6.97;;;;;;;12.19;63.98;100773.44;6082267;29;20233;-50
2021/05/18 02:36:41;;;;;;;10.23;7.20;;;;;;;12.29;63.70;100772.41;6087487;29;20236;-52
2021/05/18 02:40:02;;;;;;;9.60;7.37;;;;;;;11.88;65.14;100773.88;6085745;29;20268;-51
2021/05/18 02:43:27;;;;;;;12.50;7.13;;;;;;;12.01;64.86;100788.50;6087998;29;20236;-52
2021/05/18 02:50:31;;;;;;;8.13;6.03;;;;;;;11.88;64.10;100791.28;6085613;29;20244;-46
2021/05/18 02:53:52;;;;;;;10.20;6.17;;;;;;;12.14;62.90;100788.31;6083182;29;20236;-49
2021/05/18 02:57:13;;;;;;;13.70;7.53;;;;;;;11.85;63.23;100789.59;6101219;29;20335;-47
2021/05/18 03:00:34;;;;;;;6.30;5.53;;;;;;;12.07;62.02;100789.28;6091644;29;20599;-52
2021/05/18 03:03:56;;;;;;;10.00;6.17;;;;;;;11.83;62.67;100796.59;6086659;29;20326;-50
2021/05/18 03:07:16;;;;;;;12.87;6.73;;;;;;;12.10;61.34;100787.50;6090335;29;20328;-51
2021/05/18 03:10:37;;;;;;;8.20;5.60;;;;;;;11.99;61.24;100792.88;6088455;29;20228;-48
2021/05/18 03:13:57;;;;;;;15.50;5.50;;;;;;;12.09;60.74;100790.97;6089434;29;20262;-51
2021/05/18 03:17:18;;;;;;;10.27;5.53;;;;;;;12.22;60.26;100804.72;6096968;29;20233;-52
2021/05/18 03:20:40;;;;;;;8.77;4.07;;;;;;;12.06;60.53;100811.03;6094461;29;20248;-49
2021/05/18 03:24:00;;;;;;;4.97;4.17;;;;;;;12.35;59.20;100810.63;6092261;29;20236;-51
2021/05/18 03:27:21;;;;;;;5.17;3.83;;;;;;;11.80;60.78;100809.66;6091113;29;20232;-53
2021/05/18 03:30:50;;;;;;;6.53;3.57;;;;;;;11.68;60.50;100815.06;6084969;29;20535;-46
2021/05/18 03:34:29;;;;;;;8.67;3.80;;;;;;;11.74;60.39;100809.75;6084769;29;20236;-49
2021/05/18 03:37:53;;;;;;;6.93;4.17;;;;;;;11.85;60.66;100807.84;6085449;29;20265;-52
2021/05/18 03:41:17;;;;;;;8.93;4.30;;;;;;;12.04;59.59;100815.44;6089658;29;20236;-50
2021/05/18 04:03:08;;;;;;;5.23;3.87;;;;;;;12.06;58.31;100832.81;6085799;29;20658;-51
2021/05/18 04:10:34;;;;;;;10.27;4.73;;;;;;;12.33;57.41;100835.88;6106327;29;20228;-52
2021/05/18 04:17:35;;;;;;;7.80;4.70;;;;;;;12.04;59.48;100834.59;6086484;29;20236;-51
2021/05/18 04:21:01;;;;;;;9.13;4.27;;;;;;;12.21;58.93;100834.31;6085311;29;20611;-51
2021/05/18 04:39:06;;;;;;;5.87;4.40;;;;;;;12.37;57.55;100853.22;6094701;29;20730;-48
2021/05/18 04:53:25;;;;;;;6.80;4.43;;;;;;;12.35;57.36;100861.09;6090924;29;20877;-49
2021/05/18 05:00:25;;;;;;;7.67;4.70;;;;;;;12.37;57.32;100864.53;6086349;29;20245;-54
2021/05/18 05:04:01;;;;;;;6.13;3.70;;;;;;;12.19;57.86;100870.91;6087791;29;20952;-48
2021/05/18 05:07:29;;;;;;;9.30;5.67;;;;;;;11.96;59.10;100881.69;6092945;29;20318;-48
2021/05/18 05:14:28;;;;;;;6.73;4.87;;;;;;;12.35;59.02;100879.38;6088236;29;20224;-55
2021/05/18 05:17:48;;;;;;;8.87;4.97;;;;;;;12.11;58.47;100877.13;6086393;29;20244;-46
2021/05/18 05:21:09;;;;;;;5.83;4.63;;;;;;;11.66;60.02;100890.72;6095107;29;20562;-49
2021/05/18 05:24:31;;;;;;;7.10;4.93;;;;;;;11.85;59.88;100886.13;6088179;29;20353;-46
2021/05/18 05:27:51;;;;;;;8.53;5.17;;;;;;;12.51;58.61;100889.56;6089055;29;20233;-50
2021/05/18 05:31:12;;;;;;;9.47;5.33;;;;;;;11.74;60.47;100888.03;6073777;29;20272;-48
2021/05/18 05:34:32;;;;;;;8.53;4.90;;;;;;;11.29;61.45;100905.94;6086901;29;20237;-51
2021/05/18 05:37:54;;;;;;;8.20;5.60;;;;;;;12.07;60.19;100894.56;6089394;29;20229;-52
2021/05/18 05:41:16;;;;;;;10.60;7.03;;;;;;;12.10;59.92;100898.91;6090644;29;20239;-50
2021/05/18 05:44:36;;;;;;;7.20;6.03;;;;;;;11.57;61.43;100909.09;6091240;29;20493;-48
2021/05/18 05:47:57;;;;;;;8.40;5.67;;;;;;;12.04;60.49;100904.19;6084616;29;20228;-51
2021/05/18 05:51:17;;;;;;;7.63;6.17;;;;;;;12.57;59.03;100906.00;6088370;29;20245;-46
2021/05/18 05:54:38;;;;;;;6.90;5.23;;;;;;;12.64;58.94;100908.50;6094561;29;20244;-49
2021/05/18 05:57:59;;;;;;;9.70;7.10;;;;;;;12.61;58.80;100907.69;6086916;29;20229;-44
2021/05/18 06:01:19;;;;;;;10.03;5.63;;;;;;;11.85;61.17;100920.06;6080943;29;20237;-54
2021/05/18 06:04:40;;;;;;;9.30;4.77;;;;;;;12.52;60.12;100915.69;6088433;29;20565;-52
2021/05/18 06:08:00;;;;;;;8.87;5.70;;;;;;;13.01;61.93;100914.00;6090542;29;20232;-49
2021/05/18 06:11:25;;;;;;;9.73;5.43;;;;;;;13.19;61.44;100915.41;6087168;29;20232;-49
2021/05/18 06:14:53;;;;;;;8.67;6.40;;;;;;;12.80;59.06;100916.09;6089532;29;20708;-53
2021/05/18 06:45:42;;;;;;;9.33;6.03;;;;;;;13.53;57.95;100939.22;6084390;29;20377;-49
2021/05/18 06:47:33;;;;;;;8.73;5.70;;;;;;;13.09;59.14;100942.63;6096725;29;20236;-52
2021/05/18 06:50:54;;;;;;;10.83;6.27;;;;;;;13.57;57.72;100940.00;6095003;29;20228;-52
2021/05/18 06:54:14;;;;;;;7.17;5.83;;;;;;;14.21;56.24;100937.84;6096838;29;20241;-49
2021/05/18 06:57:36;;;;;;;9.67;6.87;;;;;;;13.17;58.41;100935.50;6091925;29;20252;-52
2021/05/18 07:00:56;;;;;;;7.73;5.90;;;;;;;13.68;57.61;100948.50;6085228;29;20244;-47
2021/05/18 07:04:17;;;;;;;9.20;6.27;;;;;;;13.94;57.33;100955.84;6082243;29;20241;-52
2021/05/18 07:07:39;;;;;;;10.07;6.07;;;;;;;14.02;56.74;100960.06;6079423;29;20236;-51
2021/05/18 07:10:59;;;;;;;6.93;5.47;;;;;;;14.05;56.28;100946.91;6081043;29;20530;-52
2021/05/18 07:14:20;;;;;;;7.20;5.50;;;;;;;14.27;55.84;100953.41;6084463;29;20252;-49
2021/05/18 07:17:41;;;;;;;8.93;6.10;;;;;;;14.14;56.39;100962.41;6080590;29;20233;-50
2021/05/18 07:21:02;;;;;;;10.17;6.63;;;;;;;13.68;57.68;100965.97;6074009;29;20311;-50
2021/05/18 07:24:26;;;;;;;9.60;7.77;;;;;;;13.21;59.11;100968.56;6090688;29;20236;-46
2021/05/18 07:27:47;;;;;;;6.87;6.10;;;;;;;14.05;57.13;100967.84;6087573;29;20689;-50
2021/05/18 07:31:08;;;;;;;9.57;6.63;;;;;;;14.60;55.67;100971.91;6085356;29;20232;-53
2021/05/18 07:34:29;;;;;;;7.43;5.77;;;;;;;14.72;55.08;100968.13;6095144;29;20596;-49
2021/05/18 07:37:49;;;;;;;8.53;6.17;;;;;;;14.95;54.02;100980.69;6092358;29;20221;-52
2021/05/18 07:41:11;;;;;;;7.83;7.07;;;;;;;14.23;54.54;100972.72;6088959;29;20245;-48
2021/05/18 07:44:32;;;;;;;7.47;6.57;;;;;;;13.29;57.79;100978.88;6079826;29;20244;-54
2021/05/18 07:47:53;;;;;;;7.23;6.53;;;;;;;14.36;54.60;100978.53;6090072;29;20504;-49
2021/05/18 07:51:25;;;;;;;7.63;6.80;;;;;;;14.24;55.27;100984.03;6092432;29;20232;-48
2021/05/18 08:02:27;;;;;;;6.77;6.00;;;;;;;14.96;52.01;100982.41;6076264;29;20623;-50
2021/05/18 08:05:49;;;;;;;5.47;4.77;;;;;;;14.57;52.46;100974.59;6088183;29;20751;-50
2021/05/18 08:09:09;;;;;;;7.33;6.00;;;;;;;14.43;53.68;100980.13;6082454;29;20259;-51
2021/05/18 08:12:30;;;;;;;5.77;5.27;;;;;;;12.90;57.54;100987.38;6082037;29;20323;-49
2021/05/18 10:36:53;;;;;;;3.30;3.00;;;;;;;13.90;49.22;101027.50;6082224;29;20270;-52
2021/05/18 10:40:31;;;;;;;3.63;3.10;;;;;;;14.68;48.39;101027.63;6077278;29;20241;-50
2021/05/18 10:43:57;;;;;;;4.47;3.17;;;;;;;14.86;48.33;101022.84;6089552;29;20228;-52
2021/05/18 10:47:18;;;;;;;3.60;2.77;;;;;;;15.24;47.45;101023.69;6081121;29;20657;-49
2021/05/18 10:50:41;;;;;;;3.63;2.90;;;;;;;14.38;49.45;101027.38;6089847;29;20614;-51
2021/05/18 10:54:25;;;;;;;3.10;2.80;;;;;;;15.09;47.50;101023.16;6083917;29;20605;-48
2021/05/18 10:57:46;;;;;;;3.13;2.90;;;;;;;16.32;44.93;101019.88;6092140;29;20236;-49
2021/05/18 11:01:06;;;;;;;5.83;3.37;;;;;;;17.03;43.43;101024.75;6079752;29;20244;-51
2021/05/18 11:04:29;;;;;;;3.37;3.07;;;;;;;17.34;42.51;101016.69;6076292;29;20623;-51
2021/05/18 11:07:50;;;;;;;2.87;2.20;;;;;;;15.48;44.96;101019.56;6078330;29;20244;-48
2021/05/18 11:11:27;;;;;;;2.80;2.50;;;;;;;16.02;45.46;101026.03;6086487;29;22081;-49
2021/05/18 11:14:50;;;;;;;2.80;2.50;;;;;;;15.25;46.24;101021.00;6077812;29;20236;-47
2021/05/18 11:18:12;;;;;;;4.57;3.13;;;;;;;14.85;47.69;101035.13;6079051;29;20240;-47
2021/05/18 11:21:36;;;;;;;2.50;2.30;;;;;;;15.03;47.77;101039.06;6079867;29;20240;-50
2021/05/18 11:24:56;;;;;;;3.87;2.90;;;;;;;15.02;48.31;101042.56;6080296;29;22314;-53
2021/05/18 11:28:21;;;;;;;3.87;3.20;;;;;;;15.13;48.62;101042.31;6070483;29;20260;-51
2021/05/18 11:31:42;;;;;;;5.97;5.13;;;;;;;15.21;48.79;101039.50;6078082;29;20658;-52
2021/05/18 11:35:06;;;;;;;6.47;5.73;;;;;;;15.36;48.62;101041.75;6079930;29;20258;-51
2021/05/18 11:38:28;;;;;;;18.03;14.83;;;;;;;15.67;48.68;101040.97;6079079;29;20236;-50
2021/05/18 11:41:53;;;;;;;17.13;13.10;;;;;;;15.66;48.24;101036.59;6079288;29;20244;-50
2021/05/18 11:45:17;;;;;;;5.70;5.20;;;;;;;15.78;47.53;101043.31;6080328;29;20256;-47
2021/05/18 11:48:39;;;;;;;6.77;6.07;;;;;;;16.49;46.50;101040.38;6078937;29;20674;-52
2021/05/18 11:52:00;;;;;;;4.93;4.03;;;;;;;16.86;47.32;101041.06;6078211;29;20237;-53
2021/05/18 11:55:27;;;;;;;7.90;7.10;;;;;;;17.05;47.12;101042.19;6084124;29;20423;-49
2021/05/18 11:58:48;;;;;;;11.87;10.63;;;;;;;18.07;45.95;101038.75;6083214;29;20872;-48
2021/05/18 12:02:10;;;;;;;9.27;8.33;;;;;;;18.13;44.97;101035.88;6073127;29;20236;-53
2021/05/18 12:05:31;;;;;;;19.43;17.30;;;;;;;17.54;45.74;101046.72;6077796;29;20416;-51
2021/05/18 12:08:57;;;;;;;9.20;6.77;;;;;;;17.01;46.23;101043.19;6083889;29;20236;-50
2021/05/18 12:12:18;;;;;;;7.07;6.47;;;;;;;17.22;45.91;101040.78;6082651;29;20759;-50
2021/05/18 12:15:39;;;;;;;6.57;5.50;;;;;;;17.46;45.48;101044.34;6081368;29;20228;-50
2021/05/18 12:19:01;;;;;;;5.03;4.53;;;;;;;18.07;44.56;101044.00;6078438;29;20244;-47
2021/05/18 12:22:21;;;;;;;3.95;3.38;;;;;;;19.43;41.79;101047.47;6091350;29;20244;-52
2021/05/18 12:25:42;;;;;;;4.63;4.05;;;;;;;18.54;42.96;101048.41;6086727;29;20228;-51
2021/05/18 12:29:05;;;;;;;4.68;4.30;;;;;;;19.59;40.85;101052.97;6084904;29;20236;-55
2021/05/18 12:32:27;;;;;;;5.60;5.10;;;;;;;19.60;41.46;101046.75;6086053;29;20244;-51
2021/05/18 12:36:02;;;;;;;5.05;4.10;;;;;;;18.47;41.24;101048.63;6086679;29;20244;-52
2021/05/18 12:39:22;;;;;;;4.20;3.88;;;;;;;18.19;41.88;101048.81;6083983;29;20334;-48
2021/05/18 12:42:45;;;;;;;7.13;6.43;;;;;;;17.90;41.83;101041.97;6090148;29;20232;-51
2021/05/18 12:46:09;;;;;;;4.30;3.90;;;;;;;18.30;40.27;101046.66;6095771;29;20229;-47
2021/05/18 12:49:36;;;;;;;3.03;2.73;;;;;;;18.25;39.25;101045.94;6076235;29;20236;-50
2021/05/18 12:52:57;;;;;;;3.63;3.33;;;;;;;19.22;37.57;101043.97;6085511;29;20266;-51
2021/05/18 12:56:28;;;;;;;3.55;2.40;;;;;;;21.43;33.01;101039.13;6092179;29;20236;-49
2021/05/18 13:00:10;;;;;;;2.88;2.67;;;;;;;19.52;36.56;101049.72;6100144;29;20812;-49
2021/05/18 13:03:30;;;;;;;2.13;1.92;;;;;;;16.16;43.00;101050.13;6084819;29;20237;-54
2021/05/18 13:06:51;;;;;;;3.80;2.08;;;;;;;17.26;41.25;101045.03;6097671;29;20236;-52
2021/05/18 13:10:19;;;;;;;2.53;2.28;;;;;;;16.64;42.77;101044.31;6093802;29;20241;-53
2021/05/18 13:13:48;;;;;;;3.60;3.03;;;;;;;16.91;42.74;101039.16;6088030;29;20232;-50
2021/05/18 13:17:10;;;;;;;3.07;2.10;;;;;;;17.29;41.35;101039.66;6071614;29;20236;-49
2021/05/18 13:20:45;;;;;;;4.10;2.80;;;;;;;15.82;44.05;101051.09;6084355;29;20264;-50
2021/05/18 13:27:53;;;;;;;2.73;2.53;;;;;;;14.87;47.40;101054.28;6088175;29;20236;-50
2021/05/18 13:31:14;;;;;;;4.23;2.70;;;;;;;15.37;47.02;101048.69;6099176;29;20792;-48
2021/05/18 13:34:34;;;;;;;3.20;2.10;;;;;;;14.38;49.34;101066.69;6097654;29;20513;-47
2021/05/18 13:37:56;;;;;;;2.40;1.40;;;;;;;13.92;51.03;101070.22;6094760;29;20634;-50
2021/05/18 13:41:16;;;;;;;2.23;2.07;;;;;;;13.29;54.47;101075.66;6085372;29;20237;-49
2021/05/18 13:44:38;;;;;;;2.90;2.23;;;;;;;13.96;54.27;101069.25;6095894;29;20710;-53
2021/05/18 13:47:59;;;;;;;2.93;2.73;;;;;;;13.82;55.42;101071.25;6084897;29;20248;-54
2021/05/18 13:51:19;;;;;;;5.07;3.43;;;;;;;14.41;54.33;101075.38;6079615;29;20236;-51
2021/05/18 13:54:39;;;;;;;3.30;2.93;;;;;;;14.67;54.18;101059.97;6080800;29;20225;-48
2021/05/18 13:58:01;;;;;;;2.50;1.90;;;;;;;15.15;53.59;101064.97;6076338;29;20794;-53
2021/05/18 14:01:22;;;;;;;3.83;3.20;;;;;;;15.30;51.62;101062.91;6082295;29;20240;-52
2021/05/18 14:04:43;;;;;;;2.20;2.00;;;;;;;15.15;51.90;101064.97;6077931;29;20713;-51
2021/05/18 14:08:25;;;;;;;2.50;2.30;;;;;;;14.83;53.27;101062.25;6080586;29;20237;-51
2021/05/18 14:11:46;;;;;;;2.17;2.07;;;;;;;15.68;48.12;101068.91;6085713;29;20237;-51
2021/05/18 14:15:07;;;;;;;3.27;1.93;;;;;;;15.93;46.53;101067.38;6080821;29;20236;-51
2021/05/18 14:18:29;;;;;;;1.90;1.70;;;;;;;16.65;43.92;101060.97;6084816;29;20285;-49
2021/05/18 14:21:49;;;;;;;2.00;1.77;;;;;;;17.02;43.64;101063.34;6079714;29;20970;-52
2021/05/18 14:25:10;;;;;;;3.73;1.57;;;;;;;17.99;40.56;101064.50;6079252;29;20315;-52
2021/05/18 14:28:31;;;;;;;0.90;0.90;;;;;;;17.60;39.40;101049.16;6082402;29;20350;-47
2021/05/18 14:31:53;;;;;;;1.03;0.97;;;;;;;16.61;40.32;101044.41;6088346;29;20311;-49
2021/05/18 14:35:15;;;;;;;1.30;1.20;;;;;;;17.01;40.91;101051.09;6080269;29;20240;-49
2021/05/18 14:38:37;;;;;;;1.50;1.30;;;;;;;17.97;39.03;101045.25;6088684;29;20240;-51
2021/05/18 14:45:38;;;;;;;1.67;1.57;;;;;;;17.81;39.63;101042.28;6083899;29;20233;-48
2021/05/18 14:56:25;;;;;;;1.65;1.55;;;;;;;18.55;38.19;101045.69;6090292;29;20241;-49
2021/05/18 14:59:46;;;;;;;1.67;1.42;;;;;;;19.95;36.86;101049.66;6088358;29;20232;-48
2021/05/18 15:03:06;;;;;;;2.40;1.92;;;;;;;18.96;37.15;101045.91;6087868;29;20655;-53
2021/05/18 15:06:27;;;;;;;2.88;2.33;;;;;;;19.51;37.92;101047.16;6085350;29;20628;-52
2021/05/18 15:09:48;;;;;;;1.30;1.20;;;;;;;19.85;35.64;101046.56;6086635;29;20228;-52
2021/05/18 15:13:09;;;;;;;2.78;2.17;;;;;;;20.20;35.69;101042.34;6089607;29;20225;-50
2021/05/18 15:16:30;;;;;;;1.98;1.77;;;;;;;19.89;37.64;101048.19;6091931;29;20236;-49
2021/05/18 15:19:52;;;;;;;2.72;2.47;;;;;;;19.93;39.19;101052.38;6092362;29;20306;-50
2021/05/18 15:23:12;;;;;;;2.47;2.28;;;;;;;19.55;40.76;101052.22;6083043;29;20256;-51
2021/05/18 15:26:34;;;;;;;2.05;1.85;;;;;;;19.10;37.34;101047.13;6083359;29;20233;-51
2021/05/18 15:29:55;;;;;;;1.85;1.70;;;;;;;18.94;40.50;101054.78;6089170;29;20506;-52
2021/05/18 15:33:15;;;;;;;2.38;1.92;;;;;;;18.27;41.81;101052.03;6091691;29;20268;-50
2021/05/18 15:36:38;;;;;;;4.27;2.03;;;;;;;18.87;41.32;101044.47;6086364;29;20250;-50
2021/05/18 15:39:59;;;;;;;51.63;42.28;;;;;;;19.28;38.39;101048.97;6086337;29;20443;-53
2021/05/18 15:43:20;;;;;;;7.78;6.60;;;;;;;19.33;39.14;101048.78;6086958;29;20237;-50
2021/05/18 15:46:41;;;;;;;2.92;2.42;;;;;;;19.63;37.73;101057.19;6087958;29;20604;-53
2021/05/18 15:50:01;;;;;;;1.80;1.70;;;;;;;19.06;38.35;101044.59;6084218;29;20316;-49
2021/05/18 15:53:22;;;;;;;2.10;1.90;;;;;;;18.74;39.64;101051.13;6081695;29;20240;-50
2021/05/18 15:56:42;;;;;;;2.20;2.10;;;;;;;18.57;40.79;101051.78;6091162;29;20526;-52
2021/05/18 16:00:06;;;;;;;1.93;1.77;;;;;;;18.09;41.60;101052.72;6089367;29;20233;-50
2021/05/18 16:03:33;;;;;;;2.03;1.90;;;;;;;17.76;42.58;101063.53;6089438;29;20745;-54
2021/05/18 16:06:53;;;;;;;2.10;1.90;;;;;;;17.55;43.14;101065.13;6084872;29;20248;-51
2021/05/18 16:10:14;;;;;;;3.73;2.30;;;;;;;17.06;44.30;101075.50;6085289;29;20232;-49
2021/05/18 16:13:34;;;;;;;2.53;2.33;;;;;;;16.66;45.47;101079.31;6081386;29;20235;-55
2021/05/18 16:16:56;;;;;;;4.13;3.33;;;;;;;15.89;48.77;101088.53;6082589;29;20659;-50
2021/05/18 16:20:16;;;;;;;4.53;3.63;;;;;;;15.09;52.68;101088.72;6080490;29;20344;-52
2021/05/18 16:23:39;;;;;;;3.63;2.50;;;;;;;15.27;50.67;101092.69;6088074;29;20635;-52
2021/05/18 16:26:59;;;;;;;3.03;2.47;;;;;;;14.66;52.55;101102.81;6089270;29;20236;-49
2021/05/18 16:30:20;;;;;;;3.27;2.97;;;;;;;14.87;52.03;101098.88;6084628;29;20293;-51
2021/05/18 16:33:42;;;;;;;3.17;2.33;;;;;;;15.36;53.48;101095.09;6086550;29;20228;-53
2021/05/18 16:37:03;;;;;;;3.30;2.87;;;;;;;15.09;52.82;101101.84;6084317;29;20224;-48
2021/05/18 16:40:23;;;;;;;3.93;3.53;;;;;;;14.90;53.92;101103.16;6082257;29;20233;-46
2021/05/18 16:43:45;;;;;;;5.30;3.23;;;;;;;14.93;53.34;101095.25;6092711;29;20268;-48
2021/05/18 16:47:06;;;;;;;3.93;3.27;;;;;;;14.53;54.22;101101.31;6081746;29;20635;-50
2021/05/18 16:50:27;;;;;;;3.00;2.80;;;;;;;14.23;54.88;101101.06;6077119;29;20248;-48
2021/05/18 16:53:53;;;;;;;4.00;2.87;;;;;;;14.36;53.85;101093.78;6085613;29;20578;-51
2021/05/18 16:57:13;;;;;;;3.40;3.03;;;;;;;14.03;54.58;101097.94;6093090;29;20248;-52
2021/05/18 17:00:34;;;;;;;3.57;3.17;;;;;;;14.89;53.27;101104.09;6089946;29;20228;-50
2021/05/18 17:03:55;;;;;;;4.37;3.00;;;;;;;15.30;51.75;101100.50;6093022;29;20630;-49
2021/05/18 17:07:16;;;;;;;4.00;3.70;;;;;;;14.86;51.84;101098.91;6088742;29;20622;-51
2021/05/18 17:10:39;;;;;;;8.97;4.43;;;;;;;14.64;53.62;101101.13;6091467;29;20236;-51
2021/05/18 17:13:59;;;;;;;3.60;3.30;;;;;;;15.54;51.41;101106.88;6089062;29;20293;-51
2021/05/18 17:17:19;;;;;;;8.33;4.77;;;;;;;14.89;53.64;101104.09;6088708;29;20237;-47
2021/05/18 17:20:40;;;;;;;4.27;3.40;;;;;;;15.38;52.59;101102.06;6088746;29;20596;-50
2021/05/18 17:24:01;;;;;;;3.67;3.30;;;;;;;15.86;51.29;101110.50;6088249;29;20316;-51
2021/05/18 17:27:22;;;;;;;4.17;3.87;;;;;;;15.59;51.67;101116.44;6092573;29;20246;-49
2021/05/18 17:30:43;;;;;;;3.90;3.60;;;;;;;15.38;52.41;101110.78;6079949;29;20264;-51
2021/05/18 17:34:04;;;;;;;5.03;4.53;;;;;;;14.66;54.14;101113.31;6088482;29;20228;-47
2021/05/18 17:37:25;;;;;;;4.47;4.07;;;;;;;15.21;53.12;101116.44;6090600;29;20236;-50
2021/05/18 17:40:46;;;;;;;4.73;4.40;;;;;;;15.06;53.66;101117.69;6079941;29;20697;-48
2021/05/18 17:44:07;;;;;;;4.40;4.00;;;;;;;15.16;53.98;101121.81;6083789;29;20236;-46
2021/05/18 17:47:28;;;;;;;3.80;3.50;;;;;;;15.53;52.64;101123.53;6089636;29;20682;-48
2021/05/18 17:50:49;;;;;;;4.10;3.70;;;;;;;15.35;52.80;101130.13;6091211;29;20260;-49
2021/05/18 17:54:10;;;;;;;4.83;4.17;;;;;;;14.12;53.93;101144.91;6083888;29;20622;-48
2021/05/18 17:57:31;;;;;;;3.37;3.07;;;;;;;15.10;51.46;101139.44;6093771;29;20233;-49
2021/05/18 18:00:51;;;;;;;4.03;3.70;;;;;;;15.18;50.97;101136.63;6094445;29;20259;-50
2021/05/18 18:04:12;;;;;;;3.43;3.13;;;;;;;15.58;50.26;101144.41;6090518;29;20323;-49
2021/05/18 18:07:33;;;;;;;7.00;4.50;;;;;;;15.11;51.59;101144.66;6096064;29;20244;-52
2021/05/18 18:10:53;;;;;;;4.07;3.77;;;;;;;15.43;51.64;101143.06;6086101;29;20248;-49
2021/05/18 18:14:15;;;;;;;3.77;3.57;;;;;;;14.93;52.99;101152.94;6092077;29;20228;-52
2021/05/18 18:17:36;;;;;;;3.93;3.57;;;;;;;15.13;52.47;101150.72;6086738;29;20228;-53
2021/05/18 18:20:56;;;;;;;4.27;3.97;;;;;;;14.95;53.18;101159.88;6089074;29;20521;-49
2021/05/18 18:24:16;;;;;;;4.57;4.07;;;;;;;15.11;53.17;101162.16;6090416;29;20252;-52
2021/05/18 18:27:37;;;;;;;4.27;3.97;;;;;;;15.31;52.36;101156.44;6086627;29;20236;-50
2021/05/18 18:30:59;;;;;;;3.47;3.10;;;;;;;15.29;52.75;101158.25;6082416;29;20229;-51
2021/05/18 18:34:19;;;;;;;3.83;3.53;;;;;;;15.02;52.85;101157.97;6080538;29;20241;-48
2021/05/18 18:37:41;;;;;;;3.67;3.37;;;;;;;15.12;52.37;101156.88;6082491;29;20241;-51
2021/05/18 18:41:03;;;;;;;3.33;3.03;;;;;;;14.85;52.22;101155.72;6089826;29;20232;-49
2021/05/18 18:44:23;;;;;;;4.87;4.37;;;;;;;14.85;51.72;101152.22;6087419;29;20237;-52
2021/05/18 18:47:44;;;;;;;4.60;3.37;;;;;;;14.70;52.20;101167.38;6093269;29;20691;-52
2021/05/18 18:51:10;;;;;;;3.37;3.17;;;;;;;15.08;51.10;101163.09;6089872;29;20236;-49
2021/05/18 18:54:30;;;;;;;5.00;4.50;;;;;;;14.92;51.71;101161.69;6080892;29;20243;-51
2021/05/18 18:57:50;;;;;;;4.70;4.30;;;;;;;15.00;51.81;101165.00;6084958;29;20241;-46
2021/05/18 19:01:12;;;;;;;4.37;4.00;;;;;;;14.86;52.40;101167.91;6086388;29;20240;-51
2021/05/18 19:04:38;;;;;;;4.13;3.73;;;;;;;15.00;53.67;101174.63;6090035;29;20245;-51
2021/05/18 19:08:19;;;;;;;5.13;3.90;;;;;;;15.08;52.14;101178.84;6086889;29;20240;-51
2021/05/18 19:15:16;;;;;;;4.73;4.33;;;;;;;14.83;52.99;101182.84;6084757;29;20241;-51
2021/05/18 19:18:37;;;;;;;5.17;4.07;;;;;;;14.96;53.11;101179.94;6087106;29;20232;-52
2021/05/18 19:21:58;;;;;;;5.83;4.37;;;;;;;14.91;54.04;101187.06;6087470;29;20302;-53
2021/05/18 19:25:19;;;;;;;4.83;4.43;;;;;;;14.67;53.82;101185.78;6084025;29;20233;-52
2021/05/18 19:28:42;;;;;;;4.40;4.00;;;;;;;14.58;54.45;101188.63;6087452;29;20229;-52
2021/05/18 19:32:03;;;;;;;5.00;4.60;;;;;;;14.63;56.45;101201.63;6081821;29;20353;-49
2021/05/18 19:35:29;;;;;;;5.17;4.77;;;;;;;14.66;54.34;101199.81;6083606;29;20604;-48
2021/05/18 19:42:43;;;;;;;5.50;5.10;;;;;;;14.61;54.82;101204.25;6087500;29;20342;-49
2021/05/18 19:49:45;;;;;;;7.27;6.67;;;;;;;13.96;56.54;101215.03;6061429;29;20228;-52
2021/05/18 19:53:10;;;;;;;5.83;5.33;;;;;;;14.01;56.73;101217.56;6084768;29;20228;-51
2021/05/18 19:56:36;;;;;;;6.97;6.43;;;;;;;13.72;57.71;101217.13;6084079;29;20228;-49
2021/05/18 20:11:25;;;;;;;6.17;5.57;;;;;;;13.62;58.81;101230.41;6087373;29;20969;-51
2021/05/18 20:15:01;;;;;;;7.03;6.43;;;;;;;13.25;59.65;101226.53;6083021;29;20644;-51
2021/05/18 20:22:16;;;;;;;7.53;6.93;;;;;;;13.10;60.53;101243.28;6062019;29;20241;-48
2021/05/18 20:25:36;;;;;;;7.27;6.47;;;;;;;13.41;59.31;101242.91;6067175;29;20804;-49
2021/05/18 20:28:56;;;;;;;7.63;6.93;;;;;;;13.39;59.53;101244.66;6089227;29;20625;-49
2021/05/18 20:32:25;;;;;;;7.70;7.00;;;;;;;13.25;60.18;101249.19;6095886;29;20354;-52
2021/05/18 20:35:49;;;;;;;7.80;7.03;;;;;;;13.12;60.54;101251.97;6097382;29;20319;-50